Shawneetown, Illinois
Current Conditions -  °F | °C
As of 2:15 PM on Thursday 30 Oct 2014 (Local Time) from KHSB Reporting Station
Broken Clouds Broken Clouds  
Wind Chill: 59°   Ceiling: 10000
Heat Index: 59°   Visibility: 10mi
Dew Point: 37°   Wind: 3mph
Humidity: 45%   Direction: 190°S
Pressure: 30.09"   Gusts: NA
Location:  37.71°N, 88.19°W
Report Text: KHSB 301915Z AUTO 19003KT 10SM BKN100 15/03 A3009 RMK AO2 T01490030
Loading
Personal Weather Stations






























Interactive Weather Map
Tropical Storm Tracking
New forecast layout! Learn more

10-Day Weather Forecast

Advertisements
Track Severe Weather on mobile